sensor_id;sensor_type;location;lat;lon;timestamp;P1;durP1;ratioP1;P2;durP2;ratioP2
19235;SDS011;9752;54.270;12.470;2022-12-10T00:03:03;29.10;;;14.63;;
19235;SDS011;9752;54.270;12.470;2022-12-10T00:08:05;27.70;;;15.73;;
19235;SDS011;9752;54.270;12.470;2022-12-10T00:13:07;26.57;;;15.43;;
19235;SDS011;9752;54.270;12.470;2022-12-10T00:18:10;32.47;;;17.33;;
19235;SDS011;9752;54.270;12.470;2022-12-10T00:23:11;30.77;;;15.10;;
19235;SDS011;9752;54.270;12.470;2022-12-10T00:28:13;31.50;;;17.43;;
19235;SDS011;9752;54.270;12.470;2022-12-10T00:33:16;30.60;;;17.00;;
19235;SDS011;9752;54.270;12.470;2022-12-10T00:38:18;35.00;;;18.47;;
19235;SDS011;9752;54.270;12.470;2022-12-10T00:43:22;29.33;;;16.40;;
19235;SDS011;9752;54.270;12.470;2022-12-10T00:48:25;40.27;;;17.20;;
19235;SDS011;9752;54.270;12.470;2022-12-10T00:53:27;39.70;;;18.80;;
19235;SDS011;9752;54.270;12.470;2022-12-10T00:58:31;35.53;;;19.00;;
19235;SDS011;9752;54.270;12.470;2022-12-10T01:03:36;29.60;;;16.30;;
19235;SDS011;9752;54.270;12.470;2022-12-10T01:08:39;36.80;;;15.67;;
19235;SDS011;9752;54.270;12.470;2022-12-10T01:13:42;29.10;;;14.77;;
19235;SDS011;9752;54.270;12.470;2022-12-10T01:18:47;35.57;;;15.77;;
19235;SDS011;9752;54.270;12.470;2022-12-10T01:23:49;30.20;;;15.37;;
19235;SDS011;9752;54.270;12.470;2022-12-10T01:28:53;33.07;;;17.30;;
19235;SDS011;9752;54.270;12.470;2022-12-10T01:33:57;32.43;;;17.53;;
19235;SDS011;9752;54.270;12.470;2022-12-10T01:39:00;31.70;;;15.33;;
19235;SDS011;9752;54.270;12.470;2022-12-10T01:44:53;29.87;;;15.27;;
19235;SDS011;9752;54.270;12.470;2022-12-10T01:49:46;36.07;;;15.63;;
19235;SDS011;9752;54.270;12.470;2022-12-10T01:54:48;33.43;;;15.47;;
19235;SDS011;9752;54.270;12.470;2022-12-10T01:59:51;32.23;;;17.27;;
19235;SDS011;9752;54.270;12.470;2022-12-10T02:04:59;33.17;;;18.47;;
19235;SDS011;9752;54.270;12.470;2022-12-10T02:10:08;30.43;;;16.67;;
19235;SDS011;9752;54.270;12.470;2022-12-10T02:15:19;38.13;;;16.77;;
19235;SDS011;9752;54.270;12.470;2022-12-10T02:20:30;33.23;;;17.03;;
19235;SDS011;9752;54.270;12.470;2022-12-10T02:25:37;34.70;;;17.47;;
19235;SDS011;9752;54.270;12.470;2022-12-10T02:30:48;32.73;;;15.90;;
19235;SDS011;9752;54.270;12.470;2022-12-10T02:35:53;31.87;;;16.00;;
19235;SDS011;9752;54.270;12.470;2022-12-10T02:40:57;30.37;;;15.30;;
19235;SDS011;9752;54.270;12.470;2022-12-10T02:46:05;37.23;;;17.73;;
19235;SDS011;9752;54.270;12.470;2022-12-10T02:51:08;29.33;;;15.97;;
19235;SDS011;9752;54.270;12.470;2022-12-10T02:56:13;29.93;;;16.07;;
19235;SDS011;9752;54.270;12.470;2022-12-10T03:01:25;33.33;;;16.27;;
19235;SDS011;9752;54.270;12.470;2022-12-10T03:06:36;31.60;;;16.57;;
19235;SDS011;9752;54.270;12.470;2022-12-10T03:11:41;34.00;;;17.17;;
19235;SDS011;9752;54.270;12.470;2022-12-10T03:16:48;26.90;;;15.40;;
19235;SDS011;9752;54.270;12.470;2022-12-10T03:21:54;31.13;;;14.63;;
19235;SDS011;9752;54.270;12.470;2022-12-10T03:26:58;24.60;;;12.70;;
19235;SDS011;9752;54.270;12.470;2022-12-10T03:32:02;29.40;;;15.03;;
19235;SDS011;9752;54.270;12.470;2022-12-10T03:37:05;24.10;;;12.80;;
19235;SDS011;9752;54.270;12.470;2022-12-10T03:42:07;27.40;;;14.23;;
19235;SDS011;9752;54.270;12.470;2022-12-10T03:47:12;29.60;;;13.63;;
19235;SDS011;9752;54.270;12.470;2022-12-10T03:52:15;31.73;;;15.13;;
19235;SDS011;9752;54.270;12.470;2022-12-10T03:57:17;26.93;;;15.87;;
19235;SDS011;9752;54.270;12.470;2022-12-10T04:02:20;28.17;;;14.90;;
19235;SDS011;9752;54.270;12.470;2022-12-10T04:07:21;26.80;;;15.37;;
19235;SDS011;9752;54.270;12.470;2022-12-10T04:12:23;28.13;;;14.60;;
19235;SDS011;9752;54.270;12.470;2022-12-10T04:17:26;28.77;;;15.27;;
19235;SDS011;9752;54.270;12.470;2022-12-10T04:22:28;29.20;;;14.70;;
19235;SDS011;9752;54.270;12.470;2022-12-10T04:27:47;36.17;;;16.73;;
19235;SDS011;9752;54.270;12.470;2022-12-10T04:32:50;30.13;;;14.73;;
19235;SDS011;9752;54.270;12.470;2022-12-10T04:37:52;32.33;;;14.60;;
19235;SDS011;9752;54.270;12.470;2022-12-10T04:42:54;29.87;;;14.53;;
19235;SDS011;9752;54.270;12.470;2022-12-10T04:47:57;27.20;;;14.63;;
19235;SDS011;9752;54.270;12.470;2022-12-10T04:52:58;26.87;;;14.30;;
19235;SDS011;9752;54.270;12.470;2022-12-10T04:58:00;23.07;;;14.33;;
19235;SDS011;9752;54.270;12.470;2022-12-10T05:03:03;29.77;;;15.70;;
19235;SDS011;9752;54.270;12.470;2022-12-10T05:08:05;32.33;;;13.33;;
19235;SDS011;9752;54.270;12.470;2022-12-10T05:13:06;24.13;;;11.47;;
19235;SDS011;9752;54.270;12.470;2022-12-10T05:18:10;24.97;;;12.57;;
19235;SDS011;9752;54.270;12.470;2022-12-10T05:23:11;22.90;;;12.93;;
19235;SDS011;9752;54.270;12.470;2022-12-10T05:28:33;24.67;;;12.70;;
19235;SDS011;9752;54.270;12.470;2022-12-10T05:33:37;26.03;;;12.03;;
19235;SDS011;9752;54.270;12.470;2022-12-10T05:38:39;22.57;;;11.83;;
19235;SDS011;9752;54.270;12.470;2022-12-10T05:43:42;21.53;;;12.53;;
19235;SDS011;9752;54.270;12.470;2022-12-10T05:48:45;24.33;;;12.53;;
19235;SDS011;9752;54.270;12.470;2022-12-10T05:53:48;24.40;;;11.57;;
19235;SDS011;9752;54.270;12.470;2022-12-10T05:58:50;20.70;;;10.57;;
19235;SDS011;9752;54.270;12.470;2022-12-10T06:03:56;22.80;;;10.87;;
19235;SDS011;9752;54.270;12.470;2022-12-10T06:08:58;20.77;;;11.73;;
19235;SDS011;9752;54.270;12.470;2022-12-10T06:14:00;25.93;;;12.80;;
19235;SDS011;9752;54.270;12.470;2022-12-10T06:19:04;19.30;;;9.93;;
19235;SDS011;9752;54.270;12.470;2022-12-10T06:24:06;19.80;;;11.13;;
19235;SDS011;9752;54.270;12.470;2022-12-10T06:29:08;22.07;;;10.33;;
19235;SDS011;9752;54.270;12.470;2022-12-10T06:34:11;20.83;;;11.63;;
19235;SDS011;9752;54.270;12.470;2022-12-10T06:39:13;24.13;;;11.97;;
19235;SDS011;9752;54.270;12.470;2022-12-10T06:44:15;23.43;;;11.57;;
19235;SDS011;9752;54.270;12.470;2022-12-10T06:49:18;19.53;;;10.93;;
19235;SDS011;9752;54.270;12.470;2022-12-10T06:54:20;21.43;;;10.70;;
19235;SDS011;9752;54.270;12.470;2022-12-10T06:59:21;20.97;;;11.17;;
19235;SDS011;9752;54.270;12.470;2022-12-10T07:04:25;20.80;;;12.17;;
19235;SDS011;9752;54.270;12.470;2022-12-10T07:09:26;18.77;;;10.80;;
19235;SDS011;9752;54.270;12.470;2022-12-10T07:14:28;19.07;;;10.20;;
19235;SDS011;9752;54.270;12.470;2022-12-10T07:19:31;20.60;;;10.53;;
19235;SDS011;9752;54.270;12.470;2022-12-10T07:24:33;15.07;;;10.40;;
19235;SDS011;9752;54.270;12.470;2022-12-10T07:29:34;19.77;;;12.87;;
19235;SDS011;9752;54.270;12.470;2022-12-10T07:34:38;21.70;;;12.13;;
19235;SDS011;9752;54.270;12.470;2022-12-10T07:39:40;20.20;;;10.93;;
19235;SDS011;9752;54.270;12.470;2022-12-10T07:44:43;18.33;;;10.87;;
19235;SDS011;9752;54.270;12.470;2022-12-10T07:49:46;21.00;;;11.27;;
19235;SDS011;9752;54.270;12.470;2022-12-10T07:54:47;20.00;;;12.00;;
19235;SDS011;9752;54.270;12.470;2022-12-10T07:59:49;20.97;;;12.23;;
19235;SDS011;9752;54.270;12.470;2022-12-10T08:04:52;15.47;;;10.47;;
19235;SDS011;9752;54.270;12.470;2022-12-10T08:09:54;20.23;;;11.53;;
19235;SDS011;9752;54.270;12.470;2022-12-10T08:14:56;17.00;;;10.00;;
19235;SDS011;9752;54.270;12.470;2022-12-10T08:19:59;18.43;;;10.70;;
19235;SDS011;9752;54.270;12.470;2022-12-10T08:25:00;19.37;;;10.30;;
19235;SDS011;9752;54.270;12.470;2022-12-10T08:30:02;17.57;;;12.50;;
19235;SDS011;9752;54.270;12.470;2022-12-10T08:35:07;19.33;;;11.93;;
19235;SDS011;9752;54.270;12.470;2022-12-10T08:40:09;19.93;;;11.07;;
19235;SDS011;9752;54.270;12.470;2022-12-10T08:45:11;21.17;;;12.00;;
19235;SDS011;9752;54.270;12.470;2022-12-10T08:50:14;23.07;;;11.80;;
19235;SDS011;9752;54.270;12.470;2022-12-10T08:55:17;19.20;;;10.87;;
19235;SDS011;9752;54.270;12.470;2022-12-10T09:00:19;21.57;;;11.57;;
19235;SDS011;9752;54.270;12.470;2022-12-10T09:05:22;21.83;;;12.77;;
19235;SDS011;9752;54.270;12.470;2022-12-10T09:10:24;23.10;;;12.67;;
19235;SDS011;9752;54.270;12.470;2022-12-10T09:15:25;24.87;;;14.00;;
19235;SDS011;9752;54.270;12.470;2022-12-10T09:20:28;22.80;;;12.87;;
19235;SDS011;9752;54.270;12.470;2022-12-10T09:25:30;26.53;;;14.50;;
19235;SDS011;9752;54.270;12.470;2022-12-10T09:30:32;27.30;;;15.40;;
19235;SDS011;9752;54.270;12.470;2022-12-10T09:35:38;25.03;;;14.70;;
19235;SDS011;9752;54.270;12.470;2022-12-10T09:40:41;27.70;;;14.17;;
19235;SDS011;9752;54.270;12.470;2022-12-10T09:45:51;30.07;;;16.70;;
19235;SDS011;9752;54.270;12.470;2022-12-10T09:51:05;25.23;;;14.60;;
19235;SDS011;9752;54.270;12.470;2022-12-10T09:56:14;25.57;;;15.40;;
19235;SDS011;9752;54.270;12.470;2022-12-10T10:01:23;23.60;;;13.13;;
19235;SDS011;9752;54.270;12.470;2022-12-10T10:06:30;22.50;;;14.27;;
19235;SDS011;9752;54.270;12.470;2022-12-10T10:11:33;17.83;;;12.27;;
19235;SDS011;9752;54.270;12.470;2022-12-10T10:16:37;26.33;;;15.73;;
19235;SDS011;9752;54.270;12.470;2022-12-10T10:21:47;28.13;;;17.10;;
19235;SDS011;9752;54.270;12.470;2022-12-10T10:26:51;34.27;;;18.77;;
19235;SDS011;9752;54.270;12.470;2022-12-10T10:32:10;37.63;;;19.50;;
19235;SDS011;9752;54.270;12.470;2022-12-10T10:37:19;31.80;;;19.60;;
19235;SDS011;9752;54.270;12.470;2022-12-10T10:42:27;25.67;;;14.87;;
19235;SDS011;9752;54.270;12.470;2022-12-10T10:47:36;26.30;;;13.80;;
19235;SDS011;9752;54.270;12.470;2022-12-10T10:52:40;24.73;;;15.17;;
19235;SDS011;9752;54.270;12.470;2022-12-10T10:57:42;28.73;;;16.57;;
19235;SDS011;9752;54.270;12.470;2022-12-10T11:02:44;35.30;;;17.00;;
19235;SDS011;9752;54.270;12.470;2022-12-10T11:07:48;30.53;;;15.97;;
19235;SDS011;9752;54.270;12.470;2022-12-10T11:12:53;32.37;;;16.60;;
19235;SDS011;9752;54.270;12.470;2022-12-10T11:17:56;29.33;;;15.40;;
19235;SDS011;9752;54.270;12.470;2022-12-10T11:23:01;33.00;;;17.20;;
19235;SDS011;9752;54.270;12.470;2022-12-10T11:28:05;32.33;;;16.23;;
19235;SDS011;9752;54.270;12.470;2022-12-10T11:33:18;30.17;;;16.97;;
19235;SDS011;9752;54.270;12.470;2022-12-10T11:38:28;33.63;;;15.77;;
19235;SDS011;9752;54.270;12.470;2022-12-10T11:43:40;32.73;;;17.37;;
19235;SDS011;9752;54.270;12.470;2022-12-10T11:48:51;33.90;;;17.57;;
19235;SDS011;9752;54.270;12.470;2022-12-10T11:54:12;31.53;;;16.20;;
19235;SDS011;9752;54.270;12.470;2022-12-10T11:59:28;33.20;;;16.00;;
19235;SDS011;9752;54.270;12.470;2022-12-10T12:04:49;37.17;;;15.67;;
19235;SDS011;9752;54.270;12.470;2022-12-10T12:10:19;26.50;;;14.90;;
19235;SDS011;9752;54.270;12.470;2022-12-10T12:15:44;28.30;;;15.90;;
19235;SDS011;9752;54.270;12.470;2022-12-10T12:20:52;24.57;;;15.80;;
19235;SDS011;9752;54.270;12.470;2022-12-10T12:26:00;28.17;;;15.40;;
19235;SDS011;9752;54.270;12.470;2022-12-10T12:31:06;31.83;;;17.17;;
19235;SDS011;9752;54.270;12.470;2022-12-10T12:36:14;33.33;;;17.03;;
19235;SDS011;9752;54.270;12.470;2022-12-10T12:41:24;31.00;;;16.23;;
19235;SDS011;9752;54.270;12.470;2022-12-10T12:46:33;32.47;;;16.77;;
19235;SDS011;9752;54.270;12.470;2022-12-10T12:51:40;33.33;;;18.13;;
19235;SDS011;9752;54.270;12.470;2022-12-10T12:56:52;28.70;;;16.43;;
19235;SDS011;9752;54.270;12.470;2022-12-10T13:02:00;27.07;;;14.43;;
19235;SDS011;9752;54.270;12.470;2022-12-10T13:07:09;27.47;;;15.50;;
19235;SDS011;9752;54.270;12.470;2022-12-10T13:12:29;30.23;;;15.70;;
19235;SDS011;9752;54.270;12.470;2022-12-10T13:17:33;29.03;;;16.17;;
19235;SDS011;9752;54.270;12.470;2022-12-10T13:22:43;29.80;;;18.23;;
19235;SDS011;9752;54.270;12.470;2022-12-10T13:27:57;25.63;;;15.50;;
19235;SDS011;9752;54.270;12.470;2022-12-10T13:33:21;24.60;;;15.80;;
19235;SDS011;9752;54.270;12.470;2022-12-10T13:38:23;30.67;;;19.43;;
19235;SDS011;9752;54.270;12.470;2022-12-10T13:43:29;35.30;;;18.13;;
19235;SDS011;9752;54.270;12.470;2022-12-10T13:48:55;34.67;;;19.63;;
19235;SDS011;9752;54.270;12.470;2022-12-10T13:54:04;31.63;;;17.33;;
19235;SDS011;9752;54.270;12.470;2022-12-10T13:59:30;32.30;;;17.63;;
19235;SDS011;9752;54.270;12.470;2022-12-10T14:04:47;30.93;;;17.13;;
19235;SDS011;9752;54.270;12.470;2022-12-10T14:10:03;32.77;;;17.30;;
19235;SDS011;9752;54.270;12.470;2022-12-10T14:15:16;36.47;;;16.03;;
19235;SDS011;9752;54.270;12.470;2022-12-10T14:20:23;31.47;;;16.83;;
19235;SDS011;9752;54.270;12.470;2022-12-10T14:25:26;35.30;;;17.97;;
19235;SDS011;9752;54.270;12.470;2022-12-10T14:30:29;38.20;;;18.60;;
19235;SDS011;9752;54.270;12.470;2022-12-10T14:35:31;37.70;;;18.63;;
19235;SDS011;9752;54.270;12.470;2022-12-10T14:40:35;33.03;;;16.57;;
19235;SDS011;9752;54.270;12.470;2022-12-10T14:45:44;34.53;;;17.73;;
19235;SDS011;9752;54.270;12.470;2022-12-10T14:50:48;35.67;;;17.27;;
19235;SDS011;9752;54.270;12.470;2022-12-10T14:55:50;37.83;;;18.57;;
19235;SDS011;9752;54.270;12.470;2022-12-10T15:00:57;34.67;;;18.70;;
19235;SDS011;9752;54.270;12.470;2022-12-10T15:06:01;46.67;;;20.00;;
19235;SDS011;9752;54.270;12.470;2022-12-10T15:11:10;39.90;;;17.10;;
19235;SDS011;9752;54.270;12.470;2022-12-10T15:16:21;45.00;;;19.27;;
19235;SDS011;9752;54.270;12.470;2022-12-10T15:21:30;41.30;;;17.33;;
19235;SDS011;9752;54.270;12.470;2022-12-10T15:26:32;35.77;;;16.73;;
19235;SDS011;9752;54.270;12.470;2022-12-10T15:31:36;35.43;;;17.23;;
19235;SDS011;9752;54.270;12.470;2022-12-10T15:36:39;34.20;;;18.27;;
19235;SDS011;9752;54.270;12.470;2022-12-10T15:41:43;35.93;;;17.40;;
19235;SDS011;9752;54.270;12.470;2022-12-10T15:46:48;33.83;;;16.70;;
19235;SDS011;9752;54.270;12.470;2022-12-10T15:51:50;35.50;;;17.17;;
19235;SDS011;9752;54.270;12.470;2022-12-10T15:56:52;37.03;;;17.03;;
19235;SDS011;9752;54.270;12.470;2022-12-10T16:01:55;36.20;;;17.20;;
19235;SDS011;9752;54.270;12.470;2022-12-10T16:06:58;34.20;;;18.07;;
19235;SDS011;9752;54.270;12.470;2022-12-10T16:11:59;40.87;;;19.27;;
19235;SDS011;9752;54.270;12.470;2022-12-10T16:17:03;47.43;;;22.70;;
19235;SDS011;9752;54.270;12.470;2022-12-10T16:22:04;48.40;;;21.87;;
19235;SDS011;9752;54.270;12.470;2022-12-10T16:27:09;63.37;;;28.40;;
19235;SDS011;9752;54.270;12.470;2022-12-10T16:32:14;41.37;;;19.23;;
19235;SDS011;9752;54.270;12.470;2022-12-10T16:37:16;37.07;;;18.80;;
19235;SDS011;9752;54.270;12.470;2022-12-10T16:42:17;33.40;;;18.87;;
19235;SDS011;9752;54.270;12.470;2022-12-10T16:47:20;41.77;;;18.37;;
19235;SDS011;9752;54.270;12.470;2022-12-10T16:52:22;36.30;;;17.43;;
19235;SDS011;9752;54.270;12.470;2022-12-10T16:57:24;25.03;;;14.47;;
19235;SDS011;9752;54.270;12.470;2022-12-10T17:02:27;32.27;;;17.73;;
19235;SDS011;9752;54.270;12.470;2022-12-10T17:07:29;36.67;;;18.10;;
19235;SDS011;9752;54.270;12.470;2022-12-10T17:12:30;67.20;;;32.27;;
19235;SDS011;9752;54.270;12.470;2022-12-10T17:17:34;61.77;;;32.70;;
19235;SDS011;9752;54.270;12.470;2022-12-10T17:22:36;83.40;;;40.17;;
19235;SDS011;9752;54.270;12.470;2022-12-10T17:27:38;60.63;;;26.97;;
19235;SDS011;9752;54.270;12.470;2022-12-10T17:32:41;48.10;;;23.90;;
19235;SDS011;9752;54.270;12.470;2022-12-10T17:37:43;54.93;;;28.20;;
19235;SDS011;9752;54.270;12.470;2022-12-10T17:42:45;59.57;;;29.40;;
19235;SDS011;9752;54.270;12.470;2022-12-10T17:47:48;51.47;;;26.03;;
19235;SDS011;9752;54.270;12.470;2022-12-10T17:52:50;51.50;;;25.57;;
19235;SDS011;9752;54.270;12.470;2022-12-10T17:57:52;64.67;;;28.00;;
19235;SDS011;9752;54.270;12.470;2022-12-10T18:02:55;52.07;;;25.27;;
19235;SDS011;9752;54.270;12.470;2022-12-10T18:07:57;52.33;;;22.87;;
19235;SDS011;9752;54.270;12.470;2022-12-10T18:12:59;58.27;;;25.70;;
19235;SDS011;9752;54.270;12.470;2022-12-10T18:18:03;41.00;;;21.47;;
19235;SDS011;9752;54.270;12.470;2022-12-10T18:23:05;44.50;;;19.40;;
19235;SDS011;9752;54.270;12.470;2022-12-10T18:28:14;42.13;;;19.73;;
19235;SDS011;9752;54.270;12.470;2022-12-10T18:33:49;46.73;;;19.63;;
19235;SDS011;9752;54.270;12.470;2022-12-10T18:38:53;36.73;;;18.23;;
19235;SDS011;9752;54.270;12.470;2022-12-10T18:43:56;52.27;;;23.27;;
19235;SDS011;9752;54.270;12.470;2022-12-10T18:49:00;49.87;;;22.53;;
19235;SDS011;9752;54.270;12.470;2022-12-10T18:54:02;49.70;;;22.77;;
19235;SDS011;9752;54.270;12.470;2022-12-10T18:59:05;45.13;;;22.30;;
19235;SDS011;9752;54.270;12.470;2022-12-10T19:04:12;42.80;;;22.57;;
19235;SDS011;9752;54.270;12.470;2022-12-10T19:09:15;47.57;;;23.30;;
19235;SDS011;9752;54.270;12.470;2022-12-10T19:14:18;65.07;;;34.67;;
19235;SDS011;9752;54.270;12.470;2022-12-10T19:19:24;58.20;;;27.70;;
19235;SDS011;9752;54.270;12.470;2022-12-10T19:24:26;51.07;;;24.53;;
19235;SDS011;9752;54.270;12.470;2022-12-10T19:29:27;49.87;;;26.27;;
19235;SDS011;9752;54.270;12.470;2022-12-10T19:34:30;70.73;;;31.33;;
19235;SDS011;9752;54.270;12.470;2022-12-10T19:39:32;56.50;;;27.50;;
19235;SDS011;9752;54.270;12.470;2022-12-10T19:44:34;55.30;;;26.47;;
19235;SDS011;9752;54.270;12.470;2022-12-10T19:49:38;52.43;;;27.23;;
19235;SDS011;9752;54.270;12.470;2022-12-10T19:54:39;58.43;;;26.20;;
19235;SDS011;9752;54.270;12.470;2022-12-10T19:59:41;64.87;;;30.47;;
19235;SDS011;9752;54.270;12.470;2022-12-10T20:04:44;61.70;;;31.10;;
19235;SDS011;9752;54.270;12.470;2022-12-10T20:09:46;64.03;;;29.40;;
19235;SDS011;9752;54.270;12.470;2022-12-10T20:14:48;55.77;;;27.40;;
19235;SDS011;9752;54.270;12.470;2022-12-10T20:19:51;60.63;;;28.17;;
19235;SDS011;9752;54.270;12.470;2022-12-10T20:24:53;58.73;;;28.13;;
19235;SDS011;9752;54.270;12.470;2022-12-10T20:29:54;59.60;;;28.93;;
19235;SDS011;9752;54.270;12.470;2022-12-10T20:34:58;58.30;;;29.40;;
19235;SDS011;9752;54.270;12.470;2022-12-10T20:39:59;50.07;;;25.77;;
19235;SDS011;9752;54.270;12.470;2022-12-10T20:45:01;56.37;;;27.97;;
19235;SDS011;9752;54.270;12.470;2022-12-10T20:50:05;58.47;;;28.97;;
19235;SDS011;9752;54.270;12.470;2022-12-10T20:55:08;66.73;;;31.03;;
19235;SDS011;9752;54.270;12.470;2022-12-10T21:00:14;59.90;;;30.23;;
19235;SDS011;9752;54.270;12.470;2022-12-10T21:05:18;66.10;;;28.20;;
19235;SDS011;9752;54.270;12.470;2022-12-10T21:10:20;57.10;;;26.77;;
19235;SDS011;9752;54.270;12.470;2022-12-10T21:15:40;45.33;;;24.17;;
19235;SDS011;9752;54.270;12.470;2022-12-10T21:20:43;47.93;;;21.93;;
19235;SDS011;9752;54.270;12.470;2022-12-10T21:25:45;48.03;;;24.27;;
19235;SDS011;9752;54.270;12.470;2022-12-10T21:30:48;51.77;;;26.60;;
19235;SDS011;9752;54.270;12.470;2022-12-10T21:35:51;53.67;;;26.27;;
19235;SDS011;9752;54.270;12.470;2022-12-10T21:40:55;58.87;;;28.03;;
19235;SDS011;9752;54.270;12.470;2022-12-10T21:45:57;51.43;;;24.67;;
19235;SDS011;9752;54.270;12.470;2022-12-10T21:51:10;58.33;;;26.50;;
19235;SDS011;9752;54.270;12.470;2022-12-10T21:56:11;52.77;;;26.47;;
19235;SDS011;9752;54.270;12.470;2022-12-10T22:01:14;56.73;;;25.20;;
19235;SDS011;9752;54.270;12.470;2022-12-10T22:06:21;56.53;;;24.83;;
19235;SDS011;9752;54.270;12.470;2022-12-10T22:11:24;55.27;;;25.10;;
19235;SDS011;9752;54.270;12.470;2022-12-10T22:16:26;48.37;;;23.17;;
19235;SDS011;9752;54.270;12.470;2022-12-10T22:21:29;43.47;;;21.40;;
19235;SDS011;9752;54.270;12.470;2022-12-10T22:26:31;50.63;;;22.43;;
19235;SDS011;9752;54.270;12.470;2022-12-10T22:31:32;50.03;;;21.60;;
19235;SDS011;9752;54.270;12.470;2022-12-10T22:36:36;48.60;;;23.23;;
19235;SDS011;9752;54.270;12.470;2022-12-10T22:41:37;44.67;;;22.70;;
19235;SDS011;9752;54.270;12.470;2022-12-10T22:46:39;49.07;;;23.30;;
19235;SDS011;9752;54.270;12.470;2022-12-10T22:51:42;47.20;;;22.23;;
19235;SDS011;9752;54.270;12.470;2022-12-10T22:56:44;47.17;;;22.67;;
19235;SDS011;9752;54.270;12.470;2022-12-10T23:01:46;41.40;;;21.40;;
19235;SDS011;9752;54.270;12.470;2022-12-10T23:06:49;41.50;;;23.63;;
19235;SDS011;9752;54.270;12.470;2022-12-10T23:11:51;38.20;;;19.93;;
19235;SDS011;9752;54.270;12.470;2022-12-10T23:17:10;41.13;;;20.10;;
19235;SDS011;9752;54.270;12.470;2022-12-10T23:22:13;39.87;;;20.63;;
19235;SDS011;9752;54.270;12.470;2022-12-10T23:27:15;42.70;;;21.27;;
19235;SDS011;9752;54.270;12.470;2022-12-10T23:32:17;39.50;;;22.00;;
19235;SDS011;9752;54.270;12.470;2022-12-10T23:37:20;36.97;;;19.97;;
19235;SDS011;9752;54.270;12.470;2022-12-10T23:42:24;37.53;;;19.77;;
19235;SDS011;9752;54.270;12.470;2022-12-10T23:47:27;38.43;;;20.90;;
19235;SDS011;9752;54.270;12.470;2022-12-10T23:52:30;44.20;;;20.87;;
19235;SDS011;9752;54.270;12.470;2022-12-10T23:57:32;39.60;;;21.17;;
